Time;durP1;ratioP1;P1;durP2;ratioP2;P2;SDS_P1;SDS_P2;PMS_P1;PMS_P2;Temp;Humidity;BMP_temperature;BMP_pressure;BME280_temperature;BME280_humidity;BME280_pressure;Samples;Min_cycle;Max_cycle;Signal;HPM_P1;HPM_P2
2023/05/19 00:01:27;;;;;;;0.50;0.50;;;;;;;7.01;54.29;101970.00;5084498;28;20028;-61
2023/05/19 00:03:57;;;;;;;0.40;0.40;;;;;;;6.98;54.32;101970.75;5084296;28;20043;-61
2023/05/19 00:06:25;;;;;;;0.40;0.40;;;;;;;6.96;54.53;101966.38;5084372;28;20028;-61
2023/05/19 00:09:00;;;;;;;0.40;0.40;;;;;;;6.94;54.33;101969.81;5083830;28;20024;-61
2023/05/19 00:11:26;;;;;;;0.40;0.40;;;;;;;6.81;54.52;101947.00;5084613;28;20032;-61
2023/05/19 00:13:53;;;;;;;0.40;0.40;;;;;;;6.92;54.89;101966.28;5084198;28;20025;-60
2023/05/19 00:16:19;;;;;;;0.40;0.40;;;;;;;6.91;55.17;101969.72;5083923;28;20549;-61
2023/05/19 00:18:46;;;;;;;0.40;0.40;;;;;;;6.92;55.42;101963.72;5082901;28;20025;-61
2023/05/19 00:21:11;;;;;;;0.50;0.50;;;;;;;6.93;55.00;101968.03;5084420;28;20047;-62
2023/05/19 00:23:37;;;;;;;0.40;0.40;;;;;;;6.97;55.03;101960.38;5084915;28;20028;-61
2023/05/19 00:26:02;;;;;;;0.40;0.40;;;;;;;6.93;55.07;101962.00;5087926;28;20422;-62
2023/05/19 00:28:28;;;;;;;0.40;0.40;;;;;;;6.99;55.00;101966.47;5087718;28;20076;-61
2023/05/19 00:30:53;;;;;;;0.40;0.40;;;;;;;7.02;55.06;101969.16;5087674;28;20028;-60
2023/05/19 00:33:19;;;;;;;0.40;0.40;;;;;;;6.98;55.03;101969.91;5087757;28;20032;-60
2023/05/19 00:35:44;;;;;;;0.40;0.40;;;;;;;6.98;55.66;101970.75;5087741;28;20020;-59
2023/05/19 00:38:09;;;;;;;0.40;0.40;;;;;;;6.98;55.78;101970.75;5087575;28;20024;-62
2023/05/19 00:40:35;;;;;;;0.40;0.40;;;;;;;6.96;55.57;101976.72;5087720;28;20020;-60
2023/05/19 00:43:01;;;;;;;0.40;0.40;;;;;;;6.93;55.52;101970.63;5087407;28;20035;-60
2023/05/19 00:45:27;;;;;;;0.40;0.40;;;;;;;6.87;55.38;101969.56;5087420;28;20084;-60
2023/05/19 00:47:53;;;;;;;0.50;0.50;;;;;;;6.86;55.35;101976.44;5087471;28;20024;-61
2023/05/19 00:50:18;;;;;;;0.40;0.40;;;;;;;6.81;55.37;101973.69;5087158;28;20024;-61
2023/05/19 00:52:44;;;;;;;0.40;0.40;;;;;;;6.79;55.47;101974.44;5087387;28;20088;-61
2023/05/19 00:55:10;;;;;;;0.40;0.40;;;;;;;6.77;55.62;101982.16;5087646;28;20025;-62
2023/05/19 00:57:36;;;;;;;0.40;0.40;;;;;;;6.71;55.52;101968.19;5087303;28;20469;-60
2023/05/19 01:00:04;;;;;;;0.40;0.40;;;;;;;6.70;55.84;101985.38;5087277;28;20063;-61
2023/05/19 01:02:31;;;;;;;0.40;0.40;;;;;;;6.62;56.07;101974.78;5087366;28;20244;-61
2023/05/19 01:04:56;;;;;;;0.40;0.40;;;;;;;6.61;56.64;101975.63;5087277;28;20046;-61
2023/05/19 01:07:22;;;;;;;0.40;0.40;;;;;;;6.62;56.92;101976.47;5087077;28;20050;-61
2023/05/19 01:09:48;;;;;;;0.40;0.40;;;;;;;6.57;57.02;101979.81;5087243;28;20021;-61
2023/05/19 01:12:15;;;;;;;0.40;0.40;;;;;;;6.52;56.87;101980.44;5087144;28;20020;-60
2023/05/19 01:14:41;;;;;;;0.40;0.40;;;;;;;6.36;56.33;101948.13;5087001;28;20021;-61
2023/05/19 01:17:21;;;;;;;0.40;0.40;;;;;;;6.51;56.63;101983.88;5087037;28;20044;-60
2023/05/19 01:20:09;;;;;;;0.40;0.40;;;;;;;6.51;56.46;101983.88;5086818;28;20412;-60
2023/05/19 01:23:06;;;;;;;0.50;0.50;;;;;;;6.48;56.59;101983.75;5086902;28;20029;-60
2023/05/19 01:26:10;;;;;;;0.40;0.40;;;;;;;6.41;56.56;101988.72;5086802;28;20020;-61
2023/05/19 01:28:47;;;;;;;0.40;0.40;;;;;;;6.39;56.64;101992.94;5086948;28;20075;-60
2023/05/19 01:31:15;;;;;;;0.40;0.40;;;;;;;6.35;57.21;101991.09;5086675;28;20033;-60
2023/05/19 01:33:42;;;;;;;0.40;0.40;;;;;;;6.35;57.53;101980.78;5086779;28;20024;-61
2023/05/19 01:36:11;;;;;;;0.40;0.40;;;;;;;6.42;57.72;101989.59;5086444;28;20086;-61
2023/05/19 01:38:37;;;;;;;0.40;0.40;;;;;;;6.51;58.56;101989.03;5086545;28;20437;-60
2023/05/19 01:41:04;;;;;;;0.40;0.40;;;;;;;6.55;58.42;101989.19;5086470;28;20056;-62
2023/05/19 01:43:30;;;;;;;0.40;0.40;;;;;;;6.61;58.45;101995.38;5086518;28;20107;-60
2023/05/19 01:45:57;;;;;;;0.40;0.40;;;;;;;6.58;58.34;101983.28;5086632;28;20055;-60
2023/05/19 01:48:24;;;;;;;0.40;0.40;;;;;;;6.66;58.13;101992.13;5086505;28;20025;-62
2023/05/19 01:50:50;;;;;;;0.40;0.40;;;;;;;6.66;57.87;101992.13;5086426;28;20024;-60
2023/05/19 01:53:15;;;;;;;0.40;0.40;;;;;;;6.67;59.02;101991.31;5086122;28;20031;-60
2023/05/19 01:55:52;;;;;;;0.40;0.40;;;;;;;6.75;59.92;102001.88;5085091;28;20108;-61
2023/05/19 01:58:58;;;;;;;0.40;0.40;;;;;;;6.87;61.52;101993.66;5086030;28;20033;-60
2023/05/19 02:01:24;;;;;;;0.40;0.40;;;;;;;6.92;61.96;101989.53;5063803;28;20143;-59
2023/05/19 02:04:23;;;;;;;0.40;0.40;;;;;;;7.00;62.98;101992.34;5063654;28;20118;-61
2023/05/19 02:07:00;;;;;;;0.40;0.40;;;;;;;7.10;63.89;101995.22;5063802;28;20028;-61
2023/05/19 02:09:34;;;;;;;0.50;0.50;;;;;;;7.17;64.35;101995.47;5063503;28;20041;-61
2023/05/19 02:12:11;;;;;;;0.40;0.40;;;;;;;7.19;64.26;101998.97;5046836;28;20039;-61
2023/05/19 02:15:03;;;;;;;0.40;0.40;;;;;;;7.20;64.02;101997.28;5063461;28;20033;-61
2023/05/19 02:17:32;;;;;;;0.50;0.50;;;;;;;7.13;64.90;101985.88;5061246;28;20045;-60
2023/05/19 02:19:57;;;;;;;0.40;0.40;;;;;;;7.07;65.15;101996.03;5062970;28;20056;-61
2023/05/19 02:22:23;;;;;;;0.40;0.40;;;;;;;7.02;65.00;101989.81;5063171;28;20067;-60
2023/05/19 02:24:50;;;;;;;0.40;0.40;;;;;;;7.01;65.05;102003.56;5063718;28;20032;-60
2023/05/19 02:27:16;;;;;;;0.40;0.40;;;;;;;6.94;65.14;101987.00;5063148;28;20089;-60
2023/05/19 02:29:41;;;;;;;0.40;0.40;;;;;;;6.91;65.80;101984.31;5063284;28;20041;-58
2023/05/19 02:32:07;;;;;;;0.40;0.40;;;;;;;6.91;66.17;101989.47;5063345;28;20033;-59
2023/05/19 02:34:32;;;;;;;0.40;0.40;;;;;;;6.91;66.64;101989.47;5067454;28;20051;-62
2023/05/19 02:36:58;;;;;;;0.40;0.40;;;;;;;6.85;66.69;101985.00;5085651;28;20529;-61
2023/05/19 02:39:23;;;;;;;0.40;0.40;;;;;;;6.85;66.47;101985.00;5084951;28;20123;-61
2023/05/19 02:41:49;;;;;;;0.30;0.30;;;;;;;6.85;66.64;101992.75;5085351;28;20032;-61
2023/05/19 02:44:14;;;;;;;0.40;0.40;;;;;;;6.84;66.80;101985.81;5085476;28;20035;-60
2023/05/19 02:46:40;;;;;;;0.43;0.43;;;;;;;6.85;67.13;101987.59;5085016;28;20433;-62
2023/05/19 02:49:06;;;;;;;0.65;0.65;;;;;;;6.80;67.19;101982.28;5085254;28;20016;-60
2023/05/19 02:51:31;;;;;;;0.40;0.40;;;;;;;6.86;67.49;101989.34;5085295;28;20031;-64
2023/05/19 02:53:57;;;;;;;0.40;0.40;;;;;;;6.84;68.02;101979.78;5084972;28;20092;-60
2023/05/19 02:56:22;;;;;;;0.40;0.40;;;;;;;6.84;68.63;101983.22;5083980;28;20033;-61
2023/05/19 02:58:48;;;;;;;0.40;0.40;;;;;;;6.83;69.04;101986.66;5085054;28;20032;-60
2023/05/19 03:01:14;;;;;;;0.40;0.40;;;;;;;6.87;69.20;101990.22;5085344;28;20491;-60
2023/05/19 03:03:39;;;;;;;0.40;0.40;;;;;;;6.85;69.39;101984.13;5084963;28;20024;-60
2023/05/19 03:06:07;;;;;;;0.40;0.40;;;;;;;6.88;69.90;101987.69;5085059;28;20533;-61
2023/05/19 03:08:33;;;;;;;0.40;0.40;;;;;;;6.92;70.17;101989.53;5085093;28;20025;-60
2023/05/19 03:10:59;;;;;;;0.40;0.40;;;;;;;6.98;70.66;101988.84;5085109;28;20029;-60
2023/05/19 03:13:24;;;;;;;0.40;0.40;;;;;;;7.11;71.04;101982.38;5084986;28;20031;-60
2023/05/19 03:15:50;;;;;;;0.40;0.40;;;;;;;7.31;71.07;101989.88;5084663;28;20080;-59
2023/05/19 03:18:15;;;;;;;0.40;0.40;;;;;;;7.52;71.06;101986.19;5084995;28;20052;-61
2023/05/19 03:20:43;;;;;;;0.60;0.60;;;;;;;7.74;70.95;101997.13;5085028;28;20078;-60
2023/05/19 03:23:09;;;;;;;0.60;0.60;;;;;;;7.88;70.89;101982.03;5084710;28;20024;-61
2023/05/19 03:25:34;;;;;;;0.40;0.40;;;;;;;8.11;70.52;101997.31;5085107;28;20046;-59
2023/05/19 03:28:00;;;;;;;0.40;0.40;;;;;;;8.29;70.30;101990.03;5085049;28;20134;-62
2023/05/19 03:30:25;;;;;;;0.73;0.73;;;;;;;8.49;70.42;101991.41;5084818;28;20048;-60
2023/05/19 03:32:51;;;;;;;0.30;0.30;;;;;;;8.77;70.09;101992.16;5084927;28;20099;-60
2023/05/19 03:35:17;;;;;;;0.40;0.40;;;;;;;9.02;69.67;101990.16;5084630;28;20118;-61
2023/05/19 03:37:42;;;;;;;0.38;0.38;;;;;;;9.22;68.70;101994.94;5084493;28;20020;-61
2023/05/19 03:40:08;;;;;;;0.38;0.38;;;;;;;9.30;68.08;102001.13;5084718;28;20028;-60
2023/05/19 03:42:33;;;;;;;0.40;0.40;;;;;;;9.38;67.20;102006.50;5084865;28;20037;-61
2023/05/19 03:44:58;;;;;;;0.40;0.40;;;;;;;9.44;67.02;102000.59;5084953;28;20021;-61
2023/05/19 03:47:24;;;;;;;0.30;0.30;;;;;;;9.57;67.38;102009.50;5084748;28;20345;-60
2023/05/19 03:49:49;;;;;;;0.30;0.30;;;;;;;9.79;67.17;102009.09;5084585;28;20089;-61
2023/05/19 03:52:15;;;;;;;0.40;0.40;;;;;;;10.09;66.65;101999.31;5084639;28;20061;-60
2023/05/19 03:54:41;;;;;;;0.30;0.30;;;;;;;10.34;66.12;102004.97;5084646;28;20031;-61
2023/05/19 03:57:08;;;;;;;0.30;0.30;;;;;;;10.51;65.80;101996.66;5084651;28;20017;-61
2023/05/19 03:59:35;;;;;;;0.35;0.35;;;;;;;10.82;65.73;101999.75;5086998;28;20037;-60
2023/05/19 04:02:01;;;;;;;0.40;0.40;;;;;;;11.17;65.52;101995.09;5088776;28;20024;-61
2023/05/19 04:04:27;;;;;;;0.30;0.30;;;;;;;11.43;64.45;101991.97;5088437;28;20489;-60
2023/05/19 04:06:53;;;;;;;0.30;0.30;;;;;;;11.59;63.28;101996.53;5088471;28;20457;-60
2023/05/19 04:09:18;;;;;;;0.40;0.40;;;;;;;11.82;63.24;101997.69;5088170;28;20039;-60
2023/05/19 04:11:44;;;;;;;0.30;0.30;;;;;;;12.09;62.95;102004.94;5088464;28;20173;-60
2023/05/19 04:14:10;;;;;;;0.30;0.30;;;;;;;12.44;63.46;102003.59;5088420;28;20027;-60
2023/05/19 04:16:35;;;;;;;0.30;0.30;;;;;;;12.93;63.30;102004.84;5087951;28;20074;-61
2023/05/19 04:19:01;;;;;;;0.32;0.32;;;;;;;13.45;63.04;102003.41;5087967;28;20039;-61
2023/05/19 04:21:26;;;;;;;6.65;1.33;;;;;;;13.86;61.22;102011.47;5088064;28;20099;-60
2023/05/19 04:23:52;;;;;;;0.30;0.30;;;;;;;14.22;61.92;102007.22;5087885;28;20091;-61
2023/05/19 04:26:20;;;;;;;0.30;0.30;;;;;;;14.84;62.35;101997.72;5088080;28;20087;-60
2023/05/19 04:28:47;;;;;;;0.20;0.20;;;;;;;15.51;61.50;101999.31;5088028;28;20028;-60
2023/05/19 04:31:13;;;;;;;0.20;0.20;;;;;;;16.04;61.10;102010.44;5087903;28;20095;-60
2023/05/19 04:33:41;;;;;;;0.20;0.20;;;;;;;16.60;60.92;102002.22;5088003;28;20024;-62
2023/05/19 04:36:09;;;;;;;0.20;0.20;;;;;;;17.07;59.86;102014.03;5087885;28;20468;-60
2023/05/19 04:38:35;;;;;;;0.20;0.20;;;;;;;17.55;59.12;102010.94;5087767;28;20024;-61
2023/05/19 04:41:01;;;;;;;0.20;0.20;;;;;;;18.02;57.46;102012.94;5087995;28;20017;-61
2023/05/19 04:43:27;;;;;;;0.30;0.30;;;;;;;18.52;56.68;102011.34;5087672;28;20049;-61
2023/05/19 04:45:53;;;;;;;0.30;0.30;;;;;;;18.70;56.44;102011.06;5087806;28;20084;-60
2023/05/19 04:48:20;;;;;;;0.20;0.20;;;;;;;18.93;56.21;102016.81;5087793;28;20100;-60
2023/05/19 04:50:47;;;;;;;0.20;0.20;;;;;;;19.08;55.10;102013.91;5087542;28;20024;-61
2023/05/19 04:53:13;;;;;;;0.20;0.20;;;;;;;19.37;52.58;102016.91;5087431;28;20020;-61
2023/05/19 04:55:38;;;;;;;0.20;0.20;;;;;;;19.85;52.45;102006.25;5087360;28;20021;-62
2023/05/19 04:58:05;;;;;;;0.20;0.20;;;;;;;20.11;50.98;102013.59;5087344;28;20457;-63
2023/05/19 05:00:30;;;;;;;0.20;0.20;;;;;;;20.27;48.89;102015.91;5087439;28;20024;-64
2023/05/19 05:02:56;;;;;;;1.30;1.23;;;;;;;20.67;48.21;102011.41;5087583;28;20017;-62
2023/05/19 05:05:22;;;;;;;0.20;0.20;;;;;;;20.95;45.69;102010.72;5087108;28;20028;-62
2023/05/19 05:07:48;;;;;;;0.20;0.20;;;;;;;20.99;43.35;102012.34;5086938;28;20499;-63
2023/05/19 05:10:13;;;;;;;0.20;0.20;;;;;;;20.99;42.85;102011.50;5087014;28;20078;-62
2023/05/19 05:12:40;;;;;;;0.20;0.20;;;;;;;21.47;43.45;102017.25;5087347;28;20025;-62
2023/05/19 05:15:06;;;;;;;0.10;0.10;;;;;;;22.24;44.72;102013.19;5087208;28;20029;-63
2023/05/19 05:17:34;;;;;;;0.10;0.10;;;;;;;22.56;44.00;102008.59;5086794;28;20044;-64
2023/05/19 05:20:00;;;;;;;0.20;0.20;;;;;;;22.78;44.17;102013.19;5087194;28;20017;-63
2023/05/19 05:22:25;;;;;;;0.10;0.10;;;;;;;22.95;44.61;102009.09;5086847;28;20064;-62
2023/05/19 05:24:51;;;;;;;0.10;0.10;;;;;;;23.11;43.80;102015.59;5086670;28;20020;-62
2023/05/19 05:27:17;;;;;;;0.28;0.28;;;;;;;23.13;43.44;102010.25;5086919;28;20017;-62
2023/05/19 05:29:42;;;;;;;0.10;0.10;;;;;;;23.06;42.79;102009.59;5086816;28;20031;-62
2023/05/19 05:32:07;;;;;;;0.10;0.10;;;;;;;23.15;40.97;102016.31;5087135;28;20080;-62
2023/05/19 05:34:34;;;;;;;0.10;0.10;;;;;;;23.48;40.69;102016.03;5086782;28;20039;-62
2023/05/19 05:37:00;;;;;;;0.10;0.10;;;;;;;23.63;39.97;102021.66;5086970;28;20028;-62
2023/05/19 05:39:26;;;;;;;0.10;0.10;;;;;;;23.81;38.96;102020.09;5086670;28;20021;-62
2023/05/19 05:41:52;;;;;;;0.10;0.10;;;;;;;23.61;36.36;102018.25;5086736;28;20066;-62
2023/05/19 05:44:17;;;;;;;0.10;0.10;;;;;;;23.85;37.44;102015.56;5086789;28;20028;-62
2023/05/19 05:46:43;;;;;;;0.10;0.10;;;;;;;23.74;37.45;102022.13;5086682;28;20031;-63
2023/05/19 05:49:09;;;;;;;0.10;0.10;;;;;;;24.06;37.36;102020.94;5086354;28;20074;-62
2023/05/19 05:51:35;;;;;;;0.10;0.10;;;;;;;24.15;36.15;102028.56;5086507;28;20024;-62
2023/05/19 05:54:01;;;;;;;0.10;0.10;;;;;;;24.28;36.63;102030.69;5086442;28;20028;-64
2023/05/19 05:56:27;;;;;;;0.10;0.10;;;;;;;24.37;36.74;102038.28;5086328;28;20025;-63
2023/05/19 05:58:52;;;;;;;0.10;0.10;;;;;;;24.13;36.51;102030.38;5086469;28;20028;-63
2023/05/19 06:01:19;;;;;;;0.10;0.10;;;;;;;23.89;36.35;102031.28;5086320;28;20029;-63
2023/05/19 06:03:45;;;;;;;0.20;0.20;;;;;;;24.27;36.52;102035.13;5086243;28;20024;-61
2023/05/19 06:06:10;;;;;;;0.10;0.10;;;;;;;23.99;35.67;102034.41;5086048;28;20046;-62
2023/05/19 06:08:36;;;;;;;0.10;0.10;;;;;;;24.05;35.57;102040.41;5085990;28;20021;-62
2023/05/19 06:11:08;;;;;;;0.20;0.20;;;;;;;24.23;34.54;102036.19;5086068;28;20036;-62
2023/05/19 06:13:37;;;;;;;0.10;0.10;;;;;;;24.29;33.92;102032.41;5086304;28;20021;-60
2023/05/19 06:16:04;;;;;;;0.13;0.13;;;;;;;24.59;33.77;102026.75;5085614;28;20021;-64
2023/05/19 06:18:29;;;;;;;0.10;0.10;;;;;;;24.46;33.76;102035.25;5085825;28;20092;-64
2023/05/19 06:20:55;;;;;;;0.10;0.10;;;;;;;24.51;33.61;102040.34;5085459;28;20032;-64
2023/05/19 06:23:20;;;;;;;0.35;0.35;;;;;;;24.46;33.55;102035.25;5085222;28;20048;-63
2023/05/19 06:25:46;;;;;;;0.63;0.63;;;;;;;24.33;33.41;102042.00;5085450;28;20025;-64
2023/05/19 06:28:11;;;;;;;1.10;1.10;;;;;;;24.34;33.45;102039.28;5083943;28;20058;-63
2023/05/19 06:30:37;;;;;;;0.10;0.10;;;;;;;24.40;34.19;102040.81;5085687;28;20079;-63
2023/05/19 06:33:02;;;;;;;0.10;0.10;;;;;;;24.73;34.21;102036.78;5085849;28;20024;-64
2023/05/19 06:35:29;;;;;;;0.10;0.10;;;;;;;24.47;34.12;102049.38;5085749;28;20051;-64
2023/05/19 06:37:57;;;;;;;0.10;0.10;;;;;;;24.48;34.34;102048.44;5085456;28;20100;-66
2023/05/19 06:40:22;;;;;;;0.35;0.35;;;;;;;24.67;31.91;102037.06;5085653;28;20080;-64
2023/05/19 06:42:48;;;;;;;5.03;1.00;;;;;;;24.74;32.75;102042.06;5085589;28;20036;-63
2023/05/19 06:45:14;;;;;;;0.10;0.10;;;;;;;24.85;32.53;102043.38;5085520;28;20049;-63
2023/05/19 06:47:41;;;;;;;0.65;0.65;;;;;;;24.83;32.29;102045.22;5085537;28;20024;-64
2023/05/19 06:50:07;;;;;;;0.10;0.10;;;;;;;24.79;32.40;102038.34;5085370;28;20020;-63
2023/05/19 06:52:33;;;;;;;0.10;0.10;;;;;;;24.58;31.88;102041.84;5085671;28;20044;-64
2023/05/19 06:54:58;;;;;;;0.10;0.10;;;;;;;24.84;31.53;102046.97;5085416;28;20464;-64
2023/05/19 06:57:23;;;;;;;0.20;0.20;;;;;;;25.08;31.90;102049.53;5085273;28;20020;-64
2023/05/19 06:59:49;;;;;;;0.10;0.10;;;;;;;24.98;31.49;102051.72;5085374;28;20108;-63
2023/05/19 07:02:14;;;;;;;0.10;0.10;;;;;;;24.78;30.40;102057.88;5085206;28;20035;-63
2023/05/19 07:04:41;;;;;;;0.20;0.20;;;;;;;24.73;30.35;102060.69;5085568;28;20036;-63
2023/05/19 07:07:06;;;;;;;0.10;0.10;;;;;;;24.89;30.60;102060.94;5085299;28;20024;-63
2023/05/19 07:09:32;;;;;;;0.10;0.10;;;;;;;24.94;30.49;102064.25;5085260;28;20024;-64
2023/05/19 07:11:57;;;;;;;0.20;0.20;;;;;;;25.15;29.54;102061.59;5085081;28;20119;-64
2023/05/19 07:14:23;;;;;;;0.10;0.10;;;;;;;24.97;30.28;102057.94;5085201;28;20052;-60
2023/05/19 07:16:48;;;;;;;0.10;0.10;;;;;;;25.18;30.78;102065.91;5084947;28;20072;-65
2023/05/19 07:19:14;;;;;;;0.10;0.10;;;;;;;25.20;30.24;102062.25;5085279;28;20043;-65
2023/05/19 07:21:41;;;;;;;0.10;0.10;;;;;;;25.19;30.81;102071.13;5085221;28;20461;-66
2023/05/19 07:24:06;;;;;;;0.10;0.10;;;;;;;25.12;30.44;102064.38;5084984;28;20107;-66
2023/05/19 07:26:32;;;;;;;0.10;0.10;;;;;;;25.06;30.64;102054.03;5085279;28;20114;-65
2023/05/19 07:28:57;;;;;;;0.10;0.10;;;;;;;25.28;30.54;102077.84;5085115;28;20077;-65
2023/05/19 07:31:23;;;;;;;0.10;0.10;;;;;;;25.20;30.90;102078.19;5085143;28;20627;-66
2023/05/19 07:33:48;;;;;;;0.10;0.10;;;;;;;25.55;30.74;102074.00;5087818;28;20049;-65
2023/05/19 07:36:13;;;;;;;0.43;0.43;;;;;;;25.80;30.52;102070.28;5088912;28;20036;-66
2023/05/19 07:38:39;;;;;;;0.15;0.15;;;;;;;25.83;30.03;102064.81;5088919;28;20085;-65
2023/05/19 07:41:04;;;;;;;0.10;0.10;;;;;;;25.81;29.64;102071.97;5087712;28;20070;-64
2023/05/19 07:43:30;;;;;;;0.10;0.10;;;;;;;25.84;28.90;102077.16;5089047;28;20055;-64
2023/05/19 07:45:55;;;;;;;0.10;0.10;;;;;;;25.82;29.31;102063.06;5089007;28;20017;-65
2023/05/19 07:48:24;;;;;;;0.10;0.10;;;;;;;25.91;29.56;102078.56;5087709;28;20029;-64
2023/05/19 07:50:50;;;;;;;0.10;0.10;;;;;;;26.27;29.58;102070.69;5088744;28;20032;-65
2023/05/19 07:53:15;;;;;;;0.10;0.10;;;;;;;26.36;29.06;102076.47;5088854;28;20031;-64
2023/05/19 07:55:41;;;;;;;0.10;0.10;;;;;;;26.46;29.23;102076.00;5087484;28;20112;-65
2023/05/19 07:58:06;;;;;;;0.30;0.30;;;;;;;26.38;27.89;102073.72;5088569;28;20016;-67
2023/05/19 08:00:31;;;;;;;0.10;0.10;;;;;;;26.20;27.72;102076.31;5088800;28;20027;-66
2023/05/19 08:02:57;;;;;;;0.10;0.10;;;;;;;26.26;28.70;102059.22;5088914;28;20033;-67
2023/05/19 08:05:24;;;;;;;0.10;0.10;;;;;;;26.62;29.25;102065.47;5088593;28;20028;-68
2023/05/19 08:07:49;;;;;;;0.20;0.20;;;;;;;26.81;28.13;102057.38;5088479;28;20027;-67
2023/05/19 08:10:15;;;;;;;0.10;0.10;;;;;;;27.29;28.57;102063.84;5088637;28;20021;-66
2023/05/19 08:12:40;;;;;;;0.10;0.10;;;;;;;27.35;27.81;102058.19;5088586;28;20024;-68
2023/05/19 08:15:06;;;;;;;0.10;0.10;;;;;;;27.50;26.91;102056.50;5088390;28;20031;-66
2023/05/19 08:17:32;;;;;;;0.30;0.30;;;;;;;27.51;26.64;102054.69;5088042;28;20041;-66
2023/05/19 08:19:59;;;;;;;0.10;0.10;;;;;;;27.47;26.00;102057.53;5088165;28;20087;-66
2023/05/19 08:22:24;;;;;;;0.10;0.10;;;;;;;27.37;26.70;102048.31;5088559;28;20024;-65
2023/05/19 08:24:50;;;;;;;0.10;0.10;;;;;;;27.44;26.69;102057.72;5088149;28;20073;-67
2023/05/19 08:27:16;;;;;;;0.10;0.10;;;;;;;27.35;26.54;102042.19;5088363;28;20052;-66
2023/05/19 08:29:41;;;;;;;0.10;0.10;;;;;;;27.08;26.66;102050.72;5088361;28;20106;-66
2023/05/19 08:32:07;;;;;;;0.10;0.10;;;;;;;27.14;27.30;102050.38;5088138;28;20021;-67
2023/05/19 08:34:32;;;;;;;0.10;0.10;;;;;;;27.45;26.92;102063.88;5088214;28;20020;-67
2023/05/19 08:36:58;;;;;;;0.50;0.50;;;;;;;27.49;26.84;102059.25;5086900;28;20054;-66
2023/05/19 08:39:25;;;;;;;0.10;0.10;;;;;;;27.64;26.18;102060.19;5087943;28;20062;-66
2023/05/19 08:41:54;;;;;;;0.10;0.10;;;;;;;27.66;25.31;102066.31;5087947;28;20052;-66
2023/05/19 08:44:20;;;;;;;0.10;0.10;;;;;;;27.54;26.18;102065.19;5087306;28;20159;-67
2023/05/19 08:46:51;;;;;;;0.50;0.50;;;;;;;27.66;26.31;102055.66;5087806;28;20013;-65
2023/05/19 08:49:21;;;;;;;0.10;0.10;;;;;;;27.72;25.98;102060.69;5088076;28;20028;-67
2023/05/19 08:51:59;;;;;;;0.10;0.10;;;;;;;27.78;26.99;102059.50;5087830;28;20055;-67
2023/05/19 08:54:32;;;;;;;0.30;0.30;;;;;;;27.98;26.50;102063.69;5087531;28;20512;-66
2023/05/19 08:56:58;;;;;;;0.10;0.10;;;;;;;28.09;26.97;102057.75;5087649;28;20033;-66
2023/05/19 08:59:23;;;;;;;0.10;0.10;;;;;;;28.57;26.42;102056.81;5087125;28;20031;-68
2023/05/19 09:01:49;;;;;;;0.10;0.10;;;;;;;28.67;25.52;102057.13;5086998;28;20074;-65
2023/05/19 09:04:15;;;;;;;0.10;0.10;;;;;;;28.45;25.53;102055.75;5087632;28;20039;-66
2023/05/19 09:06:43;;;;;;;0.10;0.10;;;;;;;28.48;25.18;102063.56;5087543;28;20080;-67
2023/05/19 09:09:09;;;;;;;0.10;0.10;;;;;;;28.49;25.13;102064.41;5087165;28;20028;-66
2023/05/19 09:11:36;;;;;;;0.15;0.15;;;;;;;28.51;25.46;102059.84;5087598;28;20025;-67
2023/05/19 09:14:03;;;;;;;0.10;0.10;;;;;;;28.64;25.41;102055.50;5087480;28;20044;-66
2023/05/19 09:16:29;;;;;;;0.73;0.73;;;;;;;28.86;25.54;102056.00;5087034;28;20044;-67
2023/05/19 09:18:56;;;;;;;0.10;0.10;;;;;;;29.50;25.65;102054.81;5087118;28;20044;-67
2023/05/19 09:21:31;;;;;;;1.67;0.90;;;;;;;29.57;23.96;102056.13;5086973;28;20465;-68
2023/05/19 09:24:06;;;;;;;0.25;0.25;;;;;;;29.49;23.63;102053.09;5087047;28;20031;-67
2023/05/19 09:26:39;;;;;;;0.10;0.10;;;;;;;29.19;24.68;102057.59;5087263;28;20383;-66
2023/05/19 09:29:11;;;;;;;0.10;0.10;;;;;;;29.25;25.01;102061.72;5087099;28;20028;-66
2023/05/19 09:31:37;;;;;;;0.20;0.20;;;;;;;29.22;25.60;102062.75;5087165;28;20032;-67
2023/05/19 09:34:02;;;;;;;0.10;0.10;;;;;;;29.36;25.29;102053.03;5087057;28;20021;-66
2023/05/19 09:36:29;;;;;;;0.55;0.55;;;;;;;29.68;24.57;102058.19;5086911;28;20050;-65
2023/05/19 09:38:55;;;;;;;0.25;0.25;;;;;;;29.97;24.27;102059.91;5086685;28;20032;-67
2023/05/19 09:41:22;;;;;;;0.10;0.10;;;;;;;29.28;23.93;102065.03;5086801;28;20028;-67
2023/05/19 09:43:53;;;;;;;0.10;0.10;;;;;;;28.65;25.29;102049.22;5086734;28;20024;-68
2023/05/19 09:46:27;;;;;;;0.10;0.10;;;;;;;28.90;25.44;102052.22;5086690;28;20095;-67
2023/05/19 09:48:57;;;;;;;0.10;0.10;;;;;;;29.15;25.22;102053.41;5086857;28;20032;-67
2023/05/19 09:51:22;;;;;;;0.10;0.10;;;;;;;29.45;25.32;102047.09;5086694;28;20035;-67
2023/05/19 09:53:48;;;;;;;0.10;0.10;;;;;;;29.97;24.83;102054.56;5086409;28;20056;-68
2023/05/19 09:56:13;;;;;;;0.10;0.10;;;;;;;29.95;25.20;102057.34;5085487;28;20098;-67
2023/05/19 09:58:41;;;;;;;0.17;0.17;;;;;;;29.70;25.57;102048.22;5086499;28;20108;-67
2023/05/19 10:01:08;;;;;;;0.10;0.10;;;;;;;29.56;25.06;102051.75;5086642;28;20021;-68
2023/05/19 10:03:34;;;;;;;0.10;0.10;;;;;;;28.42;25.69;102051.41;5086589;28;20051;-66
2023/05/19 10:06:01;;;;;;;0.10;0.10;;;;;;;27.10;26.30;102048.84;5086216;28;20033;-67
2023/05/19 10:08:28;;;;;;;0.10;0.10;;;;;;;26.17;27.67;102052.53;5086047;28;20066;-66
2023/05/19 10:10:55;;;;;;;0.10;0.10;;;;;;;26.19;27.99;102047.13;5086338;28;20024;-68
2023/05/19 10:13:23;;;;;;;0.10;0.10;;;;;;;25.75;28.49;102046.53;5086306;28;20112;-67
2023/05/19 10:15:49;;;;;;;0.10;0.10;;;;;;;25.91;28.79;102045.81;5086261;28;20033;-67
2023/05/19 10:18:16;;;;;;;0.20;0.20;;;;;;;25.72;28.22;102046.69;5085961;28;20123;-67
2023/05/19 10:20:43;;;;;;;0.20;0.20;;;;;;;24.95;28.92;102044.72;5085719;28;20085;-67
2023/05/19 10:23:08;;;;;;;0.10;0.10;;;;;;;24.33;30.11;102044.66;5085637;28;20020;-66
2023/05/19 10:25:35;;;;;;;0.20;0.20;;;;;;;24.02;30.63;102042.28;5086020;28;20035;-67
2023/05/19 10:28:12;;;;;;;0.10;0.10;;;;;;;24.32;30.86;102041.13;5085683;28;20028;-68
2023/05/19 10:30:40;;;;;;;0.10;0.10;;;;;;;24.97;30.42;102026.94;5085926;28;20025;-66
2023/05/19 10:33:10;;;;;;;0.10;0.10;;;;;;;25.71;29.59;102021.88;5085787;28;20028;-67
2023/05/19 10:35:54;;;;;;;0.13;0.13;;;;;;;26.63;28.79;102045.88;5084391;28;20024;-67
2023/05/19 10:38:26;;;;;;;0.10;0.10;;;;;;;26.95;27.98;102031.84;5085642;28;20038;-67
2023/05/19 10:41:11;;;;;;;0.20;0.20;;;;;;;27.11;27.40;102034.56;5085709;28;20052;-66
2023/05/19 10:43:43;;;;;;;0.20;0.20;;;;;;;26.94;27.14;102046.09;5085696;28;20048;-67
2023/05/19 10:46:09;;;;;;;0.10;0.10;;;;;;;26.82;28.24;102044.94;5085546;28;20020;-67
2023/05/19 10:48:35;;;;;;;0.10;0.10;;;;;;;26.97;28.06;102041.47;5085488;28;20039;-67
2023/05/19 10:51:01;;;;;;;0.10;0.10;;;;;;;27.00;27.59;102036.94;5085530;28;20092;-68
2023/05/19 10:53:31;;;;;;;0.10;0.10;;;;;;;26.54;27.63;102044.53;5085267;28;20017;-68
2023/05/19 10:56:01;;;;;;;0.10;0.10;;;;;;;26.01;28.63;102046.25;5085753;28;20040;-66
2023/05/19 10:58:48;;;;;;;0.10;0.10;;;;;;;25.23;29.15;102054.16;5085240;28;20035;-67
2023/05/19 11:01:13;;;;;;;0.10;0.10;;;;;;;24.49;29.95;102043.06;5085668;28;20024;-67
2023/05/19 11:03:53;;;;;;;0.10;0.10;;;;;;;23.86;30.40;102036.72;5085447;28;20043;-68
2023/05/19 11:06:27;;;;;;;0.10;0.10;;;;;;;23.34;30.83;102043.00;5085350;28;20027;-67
2023/05/19 11:09:14;;;;;;;0.28;0.28;;;;;;;22.58;31.68;102049.13;5085065;28;20093;-66
2023/05/19 11:11:48;;;;;;;0.20;0.20;;;;;;;22.09;31.98;102036.59;5085260;28;20033;-67
2023/05/19 11:14:26;;;;;;;0.10;0.10;;;;;;;21.82;32.38;102044.41;5085305;28;20031;-67
2023/05/19 11:16:55;;;;;;;0.17;0.17;;;;;;;21.44;33.30;102044.59;5084697;28;20041;-66
2023/05/19 11:19:30;;;;;;;0.20;0.20;;;;;;;21.00;33.84;102040.50;5085344;28;20052;-67
2023/05/19 11:21:56;;;;;;;0.10;0.10;;;;;;;20.76;34.32;102048.13;5085267;28;20037;-66
2023/05/19 11:24:37;;;;;;;0.10;0.10;;;;;;;20.34;35.34;102046.50;5084815;28;20020;-67
2023/05/19 11:27:36;;;;;;;0.10;0.10;;;;;;;20.10;35.49;102040.00;5084980;28;20052;-67
2023/05/19 11:30:05;;;;;;;0.20;0.20;;;;;;;19.59;36.22;102041.91;5085355;28;20044;-67